sensor_id;sensor_type;location;lat;lon;timestamp;pressure;altitude;pressure_sealevel;temperature;humidity
76257;BME280;65074;50.436;8.672;2024-02-16T00:01:36;99231.22;;;9.26;100.00
76257;BME280;65074;50.436;8.672;2024-02-16T00:04:02;99229.06;;;9.23;100.00
76257;BME280;65074;50.436;8.672;2024-02-16T00:06:27;99226.03;;;9.20;100.00
76257;BME280;65074;50.436;8.672;2024-02-16T00:08:52;99225.47;;;9.18;100.00
76257;BME280;65074;50.436;8.672;2024-02-16T00:11:18;99218.72;;;9.15;100.00
76257;BME280;65074;50.436;8.672;2024-02-16T00:13:43;99219.19;;;9.12;100.00
76257;BME280;65074;50.436;8.672;2024-02-16T00:16:08;99223.19;;;9.09;100.00
76257;BME280;65074;50.436;8.672;2024-02-16T00:18:34;99218.28;;;9.06;100.00
76257;BME280;65074;50.436;8.672;2024-02-16T00:21:00;99226.84;;;9.03;100.00
76257;BME280;65074;50.436;8.672;2024-02-16T00:23:26;99219.03;;;9.02;100.00
76257;BME280;65074;50.436;8.672;2024-02-16T00:25:52;99212.53;;;8.98;100.00
76257;BME280;65074;50.436;8.672;2024-02-16T00:28:18;99215.69;;;8.95;100.00
76257;BME280;65074;50.436;8.672;2024-02-16T00:30:44;99216.72;;;8.94;100.00
76257;BME280;65074;50.436;8.672;2024-02-16T00:33:09;99212.66;;;8.91;100.00
76257;BME280;65074;50.436;8.672;2024-02-16T00:35:34;99208.38;;;8.90;100.00
76257;BME280;65074;50.436;8.672;2024-02-16T00:38:00;99210.50;;;8.88;100.00
76257;BME280;65074;50.436;8.672;2024-02-16T00:40:26;99203.50;;;8.87;100.00
76257;BME280;65074;50.436;8.672;2024-02-16T00:42:51;99217.72;;;8.88;100.00
76257;BME280;65074;50.436;8.672;2024-02-16T00:45:17;99213.19;;;8.88;100.00
76257;BME280;65074;50.436;8.672;2024-02-16T00:47:42;99216.66;;;8.89;100.00
76257;BME280;65074;50.436;8.672;2024-02-16T00:50:10;99207.00;;;8.88;100.00
76257;BME280;65074;50.436;8.672;2024-02-16T00:52:36;99199.97;;;8.87;100.00
76257;BME280;65074;50.436;8.672;2024-02-16T00:55:02;99207.81;;;8.88;100.00
76257;BME280;65074;50.436;8.672;2024-02-16T00:57:29;99218.28;;;8.90;100.00
76257;BME280;65074;50.436;8.672;2024-02-16T00:59:54;99215.34;;;8.91;100.00
76257;BME280;65074;50.436;8.672;2024-02-16T01:02:20;99217.25;;;8.91;100.00
76257;BME280;65074;50.436;8.672;2024-02-16T01:04:45;99201.94;;;8.91;100.00
76257;BME280;65074;50.436;8.672;2024-02-16T01:07:12;99200.31;;;8.90;100.00
76257;BME280;65074;50.436;8.672;2024-02-16T01:09:37;99199.50;;;8.90;100.00
76257;BME280;65074;50.436;8.672;2024-02-16T01:12:03;99205.13;;;8.88;100.00
76257;BME280;65074;50.436;8.672;2024-02-16T01:14:28;99196.25;;;8.88;100.00
76257;BME280;65074;50.436;8.672;2024-02-16T01:16:53;99196.25;;;8.88;100.00
76257;BME280;65074;50.436;8.672;2024-02-16T01:19:19;99199.25;;;8.91;100.00
76257;BME280;65074;50.436;8.672;2024-02-16T01:21:44;99195.28;;;8.94;100.00
76257;BME280;65074;50.436;8.672;2024-02-16T01:24:12;99191.53;;;8.95;100.00
76257;BME280;65074;50.436;8.672;2024-02-16T01:26:38;99193.19;;;8.96;100.00
76257;BME280;65074;50.436;8.672;2024-02-16T01:29:03;99191.88;;;8.98;100.00
76257;BME280;65074;50.436;8.672;2024-02-16T01:31:29;99185.44;;;8.99;100.00
76257;BME280;65074;50.436;8.672;2024-02-16T01:33:54;99183.84;;;8.98;100.00
76257;BME280;65074;50.436;8.672;2024-02-16T01:36:20;99195.63;;;8.97;100.00
76257;BME280;65074;50.436;8.672;2024-02-16T01:38:45;99190.81;;;8.99;100.00
76257;BME280;65074;50.436;8.672;2024-02-16T01:41:11;99188.13;;;8.99;100.00
76257;BME280;65074;50.436;8.672;2024-02-16T01:43:37;99184.06;;;8.97;100.00
76257;BME280;65074;50.436;8.672;2024-02-16T01:46:03;99186.19;;;8.95;100.00
76257;BME280;65074;50.436;8.672;2024-02-16T01:48:29;99188.31;;;8.93;100.00
76257;BME280;65074;50.436;8.672;2024-02-16T01:50:55;99186.66;;;8.92;100.00
76257;BME280;65074;50.436;8.672;2024-02-16T01:53:21;99195.19;;;8.89;100.00
76257;BME280;65074;50.436;8.672;2024-02-16T01:55:47;99188.44;;;8.86;100.00
76257;BME280;65074;50.436;8.672;2024-02-16T01:58:13;99181.94;;;8.82;100.00
76257;BME280;65074;50.436;8.672;2024-02-16T02:00:39;99196.44;;;8.81;100.00
76257;BME280;65074;50.436;8.672;2024-02-16T02:03:06;99184.06;;;8.80;100.00
76257;BME280;65074;50.436;8.672;2024-02-16T02:05:32;99194.22;;;8.78;100.00
76257;BME280;65074;50.436;8.672;2024-02-16T02:07:58;99187.69;;;8.74;100.00
76257;BME280;65074;50.436;8.672;2024-02-16T02:10:23;99198.66;;;8.73;100.00
76257;BME280;65074;50.436;8.672;2024-02-16T02:12:49;99188.41;;;8.70;100.00
76257;BME280;65074;50.436;8.672;2024-02-16T02:15:14;99192.41;;;8.67;100.00
76257;BME280;65074;50.436;8.672;2024-02-16T02:17:40;99194.75;;;8.64;100.00
76257;BME280;65074;50.436;8.672;2024-02-16T02:20:06;99190.69;;;8.61;100.00
76257;BME280;65074;50.436;8.672;2024-02-16T02:22:35;99182.31;;;8.58;100.00
76257;BME280;65074;50.436;8.672;2024-02-16T02:25:01;99180.09;;;8.55;100.00
76257;BME280;65074;50.436;8.672;2024-02-16T02:27:26;99176.03;;;8.52;100.00
76257;BME280;65074;50.436;8.672;2024-02-16T02:29:51;99173.59;;;8.50;100.00
76257;BME280;65074;50.436;8.672;2024-02-16T02:32:17;99177.31;;;8.49;100.00
76257;BME280;65074;50.436;8.672;2024-02-16T02:34:42;99178.41;;;8.48;100.00
76257;BME280;65074;50.436;8.672;2024-02-16T02:37:08;99174.06;;;8.47;100.00
76257;BME280;65074;50.436;8.672;2024-02-16T02:39:34;99176.53;;;8.49;100.00
76257;BME280;65074;50.436;8.672;2024-02-16T02:41:59;99169.53;;;8.48;100.00
76257;BME280;65074;50.436;8.672;2024-02-16T02:44:25;99176.28;;;8.50;100.00
76257;BME280;65074;50.436;8.672;2024-02-16T02:46:51;99178.16;;;8.50;100.00
76257;BME280;65074;50.436;8.672;2024-02-16T02:49:17;99171.75;;;8.51;100.00
76257;BME280;65074;50.436;8.672;2024-02-16T02:51:42;99172.78;;;8.50;100.00
76257;BME280;65074;50.436;8.672;2024-02-16T02:54:08;99169.28;;;8.49;100.00
76257;BME280;65074;50.436;8.672;2024-02-16T02:56:33;99166.03;;;8.47;100.00
76257;BME280;65074;50.436;8.672;2024-02-16T02:58:59;99158.34;;;8.51;100.00
76257;BME280;65074;50.436;8.672;2024-02-16T03:01:24;99159.38;;;8.50;100.00
76257;BME280;65074;50.436;8.672;2024-02-16T03:03:49;99164.53;;;8.52;100.00
76257;BME280;65074;50.436;8.672;2024-02-16T03:06:18;99157.53;;;8.50;100.00
76257;BME280;65074;50.436;8.672;2024-02-16T03:08:44;99154.59;;;8.52;100.00
76257;BME280;65074;50.436;8.672;2024-02-16T03:11:10;99151.25;;;8.45;100.00
76257;BME280;65074;50.436;8.672;2024-02-16T03:13:36;99155.31;;;8.47;100.00
76257;BME280;65074;50.436;8.672;2024-02-16T03:16:01;99154.75;;;8.45;100.00
76257;BME280;65074;50.436;8.672;2024-02-16T03:18:30;99157.91;;;8.42;100.00
76257;BME280;65074;50.436;8.672;2024-02-16T03:20:56;99154.66;;;8.40;100.00
76257;BME280;65074;50.436;8.672;2024-02-16T03:23:21;99154.09;;;8.38;100.00
76257;BME280;65074;50.436;8.672;2024-02-16T03:25:46;99151.16;;;8.40;100.00
76257;BME280;65074;50.436;8.672;2024-02-16T03:28:12;99157.91;;;8.42;100.00
76257;BME280;65074;50.436;8.672;2024-02-16T03:30:38;99146.34;;;8.42;100.00
76257;BME280;65074;50.436;8.672;2024-02-16T03:33:03;99150.13;;;8.41;100.00
76257;BME280;65074;50.436;8.672;2024-02-16T03:35:29;99155.00;;;8.44;100.00
76257;BME280;65074;50.436;8.672;2024-02-16T03:37:54;99162.78;;;8.45;100.00
76257;BME280;65074;50.436;8.672;2024-02-16T03:40:22;99152.63;;;8.47;100.00
76257;BME280;65074;50.436;8.672;2024-02-16T03:42:48;99164.19;;;8.48;100.00
76257;BME280;65074;50.436;8.672;2024-02-16T03:45:13;99163.13;;;8.49;100.00
76257;BME280;65074;50.436;8.672;2024-02-16T03:47:42;99166.94;;;8.53;100.00
76257;BME280;65074;50.436;8.672;2024-02-16T03:50:07;99157.63;;;8.56;100.00
76257;BME280;65074;50.436;8.672;2024-02-16T03:52:33;99158.19;;;8.58;100.00
76257;BME280;65074;50.436;8.672;2024-02-16T03:54:58;99158.53;;;8.61;100.00
76257;BME280;65074;50.436;8.672;2024-02-16T03:57:24;99166.06;;;8.64;100.00
76257;BME280;65074;50.436;8.672;2024-02-16T03:59:50;99158.63;;;8.66;100.00
76257;BME280;65074;50.436;8.672;2024-02-16T04:02:15;99163.47;;;8.69;100.00
76257;BME280;65074;50.436;8.672;2024-02-16T04:04:40;99171.03;;;8.72;100.00
76257;BME280;65074;50.436;8.672;2024-02-16T04:07:06;99174.06;;;8.76;100.00
76257;BME280;65074;50.436;8.672;2024-02-16T04:09:32;99166.31;;;8.79;100.00
76257;BME280;65074;50.436;8.672;2024-02-16T04:11:58;99166.66;;;8.83;100.00
76257;BME280;65074;50.436;8.672;2024-02-16T04:14:23;99177.72;;;8.86;100.00
76257;BME280;65074;50.436;8.672;2024-02-16T04:16:48;99172.69;;;8.90;100.00
76257;BME280;65074;50.436;8.672;2024-02-16T04:19:14;99183.75;;;8.93;100.00
76257;BME280;65074;50.436;8.672;2024-02-16T04:21:39;99173.03;;;8.93;100.00
76257;BME280;65074;50.436;8.672;2024-02-16T04:24:05;99172.75;;;8.95;100.00
76257;BME280;65074;50.436;8.672;2024-02-16T04:26:30;99178.94;;;8.95;100.00
76257;BME280;65074;50.436;8.672;2024-02-16T04:28:56;99179.50;;;8.97;100.00
76257;BME280;65074;50.436;8.672;2024-02-16T04:31:21;99174.16;;;8.97;100.00
76257;BME280;65074;50.436;8.672;2024-02-16T04:33:47;99177.09;;;8.96;100.00
76257;BME280;65074;50.436;8.672;2024-02-16T04:36:12;99176.84;;;8.97;100.00
76257;BME280;65074;50.436;8.672;2024-02-16T04:38:37;99172.03;;;8.99;100.00
76257;BME280;65074;50.436;8.672;2024-02-16T04:41:05;99177.16;;;9.01;100.00
76257;BME280;65074;50.436;8.672;2024-02-16T04:43:30;99177.97;;;9.01;100.00
76257;BME280;65074;50.436;8.672;2024-02-16T04:45:56;99183.91;;;9.03;100.00
76257;BME280;65074;50.436;8.672;2024-02-16T04:48:21;99183.91;;;9.03;100.00
76257;BME280;65074;50.436;8.672;2024-02-16T04:50:46;99184.72;;;9.04;100.00
76257;BME280;65074;50.436;8.672;2024-02-16T04:53:12;99188.00;;;9.06;100.00
76257;BME280;65074;50.436;8.672;2024-02-16T04:55:37;99188.00;;;9.06;100.00
76257;BME280;65074;50.436;8.672;2024-02-16T04:58:02;99189.59;;;9.07;100.00
76257;BME280;65074;50.436;8.672;2024-02-16T05:00:34;99182.63;;;9.06;100.00
76257;BME280;65074;50.436;8.672;2024-02-16T05:02:59;99183.66;;;9.05;100.00
76257;BME280;65074;50.436;8.672;2024-02-16T05:05:25;99175.88;;;9.03;100.00
76257;BME280;65074;50.436;8.672;2024-02-16T05:07:50;99187.66;;;9.02;100.00
76257;BME280;65074;50.436;8.672;2024-02-16T05:10:16;99182.75;;;8.99;100.00
76257;BME280;65074;50.436;8.672;2024-02-16T05:12:41;99186.53;;;8.98;100.00
76257;BME280;65074;50.436;8.672;2024-02-16T05:15:07;99193.97;;;8.96;100.00
76257;BME280;65074;50.436;8.672;2024-02-16T05:17:32;99195.28;;;8.94;100.00
76257;BME280;65074;50.436;8.672;2024-02-16T05:19:58;99189.34;;;8.92;100.00
76257;BME280;65074;50.436;8.672;2024-02-16T05:22:23;99171.03;;;8.89;100.00
76257;BME280;65074;50.436;8.672;2024-02-16T05:24:48;99169.66;;;8.86;100.00
76257;BME280;65074;50.436;8.672;2024-02-16T05:27:14;99176.34;;;8.84;100.00
76257;BME280;65074;50.436;8.672;2024-02-16T05:29:40;99175.28;;;8.85;100.00
76257;BME280;65074;50.436;8.672;2024-02-16T05:32:06;99163.16;;;8.82;100.00
76257;BME280;65074;50.436;8.672;2024-02-16T05:34:31;99165.84;;;8.82;100.00
76257;BME280;65074;50.436;8.672;2024-02-16T05:37:06;99163.16;;;8.82;100.00
76257;BME280;65074;50.436;8.672;2024-02-16T05:39:33;99160.75;;;8.81;100.00
76257;BME280;65074;50.436;8.672;2024-02-16T05:42:01;99157.25;;;8.80;100.00
76257;BME280;65074;50.436;8.672;2024-02-16T05:44:27;99156.41;;;8.80;100.00
76257;BME280;65074;50.436;8.672;2024-02-16T05:46:53;99149.44;;;8.79;100.00
76257;BME280;65074;50.436;8.672;2024-02-16T05:49:19;99154.81;;;8.79;100.00
76257;BME280;65074;50.436;8.672;2024-02-16T05:51:45;99156.19;;;8.81;100.00
76257;BME280;65074;50.436;8.672;2024-02-16T05:54:31;99158.06;;;8.81;100.00
76257;BME280;65074;50.436;8.672;2024-02-16T05:56:56;99153.16;;;8.78;100.00
76257;BME280;65074;50.436;8.672;2024-02-16T05:59:22;99157.97;;;8.76;100.00
76257;BME280;65074;50.436;8.672;2024-02-16T06:01:47;99146.59;;;8.69;100.00
76257;BME280;65074;50.436;8.672;2024-02-16T06:04:12;99144.59;;;8.64;100.00
76257;BME280;65074;50.436;8.672;2024-02-16T06:06:38;99142.91;;;8.58;100.00
76257;BME280;65074;50.436;8.672;2024-02-16T06:09:04;99151.69;;;8.54;100.00
76257;BME280;65074;50.436;8.672;2024-02-16T06:11:31;99155.09;;;8.49;100.00
76257;BME280;65074;50.436;8.672;2024-02-16T06:13:56;99153.09;;;8.44;100.00
76257;BME280;65074;50.436;8.672;2024-02-16T06:16:22;99161.66;;;8.41;100.00
76257;BME280;65074;50.436;8.672;2024-02-16T06:18:47;99160.25;;;8.39;100.00
76257;BME280;65074;50.436;8.672;2024-02-16T06:21:14;99155.28;;;8.31;100.00
76257;BME280;65074;50.436;8.672;2024-02-16T06:23:41;99165.19;;;8.30;100.00
76257;BME280;65074;50.436;8.672;2024-02-16T06:26:06;99166.13;;;8.24;100.00
76257;BME280;65074;50.436;8.672;2024-02-16T06:28:32;99170.88;;;8.22;100.00
76257;BME280;65074;50.436;8.672;2024-02-16T06:30:57;99166.59;;;8.21;100.00
76257;BME280;65074;50.436;8.672;2024-02-16T06:33:22;99165.88;;;8.26;100.00
76257;BME280;65074;50.436;8.672;2024-02-16T06:35:48;99165.88;;;8.26;100.00
76257;BME280;65074;50.436;8.672;2024-02-16T06:38:15;99169.34;;;8.38;100.00
76257;BME280;65074;50.436;8.672;2024-02-16T06:40:40;99174.06;;;8.47;100.00
76257;BME280;65074;50.436;8.672;2024-02-16T06:43:05;99171.75;;;8.51;100.00
76257;BME280;65074;50.436;8.672;2024-02-16T06:45:31;99183.44;;;8.62;100.00
76257;BME280;65074;50.436;8.672;2024-02-16T06:47:56;99176.31;;;8.67;100.00
76257;BME280;65074;50.436;8.672;2024-02-16T06:50:22;99176.09;;;8.69;100.00
76257;BME280;65074;50.436;8.672;2024-02-16T06:52:47;99169.44;;;8.71;100.00
76257;BME280;65074;50.436;8.672;2024-02-16T06:55:13;99164.28;;;8.70;100.00
76257;BME280;65074;50.436;8.672;2024-02-16T06:57:38;99173.97;;;8.71;100.00
76257;BME280;65074;50.436;8.672;2024-02-16T07:00:04;99173.81;;;8.77;100.00
76257;BME280;65074;50.436;8.672;2024-02-16T07:02:30;99189.69;;;8.79;100.00
76257;BME280;65074;50.436;8.672;2024-02-16T07:04:56;99187.31;;;8.82;100.00
76257;BME280;65074;50.436;8.672;2024-02-16T07:07:21;99191.72;;;8.88;100.00
76257;BME280;65074;50.436;8.672;2024-02-16T07:09:46;99181.06;;;8.93;100.00
76257;BME280;65074;50.436;8.672;2024-02-16T07:12:12;99190.25;;;8.97;100.00
76257;BME280;65074;50.436;8.672;2024-02-16T07:14:37;99191.38;;;9.01;100.00
76257;BME280;65074;50.436;8.672;2024-02-16T07:17:03;99196.03;;;9.06;100.00
76257;BME280;65074;50.436;8.672;2024-02-16T07:19:28;99198.00;;;9.10;100.00
76257;BME280;65074;50.436;8.672;2024-02-16T07:21:54;99206.69;;;9.18;100.00
76257;BME280;65074;50.436;8.672;2024-02-16T07:24:19;99205.22;;;9.27;100.00
76257;BME280;65074;50.436;8.672;2024-02-16T07:26:45;99204.81;;;9.35;100.00
76257;BME280;65074;50.436;8.672;2024-02-16T07:29:10;99222.47;;;9.47;100.00
76257;BME280;65074;50.436;8.672;2024-02-16T07:31:38;99231.78;;;9.61;100.00
76257;BME280;65074;50.436;8.672;2024-02-16T07:34:03;99226.06;;;9.74;100.00
76257;BME280;65074;50.436;8.672;2024-02-16T07:36:29;99225.72;;;9.88;100.00
76257;BME280;65074;50.436;8.672;2024-02-16T07:38:54;99226.16;;;10.01;100.00
76257;BME280;65074;50.436;8.672;2024-02-16T07:41:20;99233.31;;;10.12;100.00
76257;BME280;65074;50.436;8.672;2024-02-16T07:43:45;99245.03;;;10.23;100.00
76257;BME280;65074;50.436;8.672;2024-02-16T07:46:10;99245.41;;;10.31;100.00
76257;BME280;65074;50.436;8.672;2024-02-16T07:48:36;99244.72;;;10.41;100.00
76257;BME280;65074;50.436;8.672;2024-02-16T07:51:01;99244.28;;;10.49;100.00
76257;BME280;65074;50.436;8.672;2024-02-16T07:53:29;99240.63;;;10.60;100.00
76257;BME280;65074;50.436;8.672;2024-02-16T07:55:54;99240.41;;;10.67;100.00
76257;BME280;65074;50.436;8.672;2024-02-16T07:58:19;99235.97;;;10.77;100.00
76257;BME280;65074;50.436;8.672;2024-02-16T08:00:45;99241.44;;;10.87;100.00
76257;BME280;65074;50.436;8.672;2024-02-16T08:03:10;99231.09;;;11.01;100.00
76257;BME280;65074;50.436;8.672;2024-02-16T08:05:36;99243.06;;;11.15;100.00
76257;BME280;65074;50.436;8.672;2024-02-16T08:08:01;99259.03;;;11.27;100.00
76257;BME280;65074;50.436;8.672;2024-02-16T08:10:26;99254.53;;;11.32;100.00
76257;BME280;65074;50.436;8.672;2024-02-16T08:12:52;99252.66;;;11.33;100.00
76257;BME280;65074;50.436;8.672;2024-02-16T08:15:18;99256.16;;;11.38;100.00
76257;BME280;65074;50.436;8.672;2024-02-16T08:17:48;99263.19;;;11.39;100.00
76257;BME280;65074;50.436;8.672;2024-02-16T08:20:15;99251.59;;;11.39;100.00
76257;BME280;65074;50.436;8.672;2024-02-16T08:22:40;99244.88;;;11.41;100.00
76257;BME280;65074;50.436;8.672;2024-02-16T08:25:06;99247.63;;;11.46;100.00
76257;BME280;65074;50.436;8.672;2024-02-16T08:27:32;99243.38;;;11.50;100.00
76257;BME280;65074;50.436;8.672;2024-02-16T08:29:57;99248.75;;;11.55;100.00
76257;BME280;65074;50.436;8.672;2024-02-16T08:32:23;99252.31;;;11.61;100.00
76257;BME280;65074;50.436;8.672;2024-02-16T08:34:48;99256.91;;;11.65;100.00
76257;BME280;65074;50.436;8.672;2024-02-16T08:37:15;99261.00;;;11.68;100.00
76257;BME280;65074;50.436;8.672;2024-02-16T08:39:41;99254.28;;;11.70;100.00
76257;BME280;65074;50.436;8.672;2024-02-16T08:42:06;99249.72;;;11.71;100.00
76257;BME280;65074;50.436;8.672;2024-02-16T08:44:34;99258.13;;;11.74;100.00
76257;BME280;65074;50.436;8.672;2024-02-16T08:46:59;99258.94;;;11.75;100.00
76257;BME280;65074;50.436;8.672;2024-02-16T08:49:25;99264.31;;;11.80;100.00
76257;BME280;65074;50.436;8.672;2024-02-16T08:51:50;99255.44;;;11.80;100.00
76257;BME280;65074;50.436;8.672;2024-02-16T08:54:15;99261.13;;;11.83;100.00
76257;BME280;65074;50.436;8.672;2024-02-16T08:56:44;99254.38;;;11.81;100.00
76257;BME280;65074;50.436;8.672;2024-02-16T08:59:10;99271.91;;;11.83;100.00
76257;BME280;65074;50.436;8.672;2024-02-16T09:01:37;99265.44;;;11.84;100.00
76257;BME280;65074;50.436;8.672;2024-02-16T09:04:02;99268.69;;;11.86;100.00
76257;BME280;65074;50.436;8.672;2024-02-16T09:06:29;99281.16;;;11.92;100.00
76257;BME280;65074;50.436;8.672;2024-02-16T09:08:55;99282.78;;;11.98;100.00
76257;BME280;65074;50.436;8.672;2024-02-16T09:11:22;99286.59;;;12.02;100.00
76257;BME280;65074;50.436;8.672;2024-02-16T09:13:47;99278.78;;;12.06;100.00
76257;BME280;65074;50.436;8.672;2024-02-16T09:16:12;99286.31;;;12.04;100.00
76257;BME280;65074;50.436;8.672;2024-02-16T09:18:38;99290.09;;;12.03;100.00
76257;BME280;65074;50.436;8.672;2024-02-16T09:21:04;99289.53;;;12.01;100.00
76257;BME280;65074;50.436;8.672;2024-02-16T09:23:30;99284.16;;;12.01;100.00
76257;BME280;65074;50.436;8.672;2024-02-16T09:25:56;99286.03;;;12.00;100.00
76257;BME280;65074;50.436;8.672;2024-02-16T09:28:21;99285.25;;;12.00;100.00
76257;BME280;65074;50.436;8.672;2024-02-16T09:30:47;99287.94;;;12.00;100.00
76257;BME280;65074;50.436;8.672;2024-02-16T09:33:12;99288.19;;;11.98;100.00
76257;BME280;65074;50.436;8.672;2024-02-16T09:35:39;99296.81;;;12.00;100.00
76257;BME280;65074;50.436;8.672;2024-02-16T09:38:04;99295.47;;;12.03;100.00
76257;BME280;65074;50.436;8.672;2024-02-16T09:40:30;99297.97;;;12.09;100.00
76257;BME280;65074;50.436;8.672;2024-02-16T09:42:55;99298.25;;;12.13;100.00
76257;BME280;65074;50.436;8.672;2024-02-16T09:45:20;99301.78;;;12.18;100.00
76257;BME280;65074;50.436;8.672;2024-02-16T09:47:47;99308.84;;;12.24;100.00
76257;BME280;65074;50.436;8.672;2024-02-16T09:50:14;99287.03;;;12.31;100.00
76257;BME280;65074;50.436;8.672;2024-02-16T09:52:40;99296.75;;;12.37;100.00
76257;BME280;65074;50.436;8.672;2024-02-16T09:55:12;99291.97;;;12.49;100.00
76257;BME280;65074;50.436;8.672;2024-02-16T09:57:38;99299.28;;;12.59;100.00
76257;BME280;65074;50.436;8.672;2024-02-16T10:00:03;99310.16;;;12.74;100.00
76257;BME280;65074;50.436;8.672;2024-02-16T10:02:45;99305.31;;;12.86;100.00
76257;BME280;65074;50.436;8.672;2024-02-16T10:05:21;99305.63;;;12.99;100.00
76257;BME280;65074;50.436;8.672;2024-02-16T10:07:46;99307.31;;;13.11;100.00
76257;BME280;65074;50.436;8.672;2024-02-16T10:10:22;99307.34;;;13.21;100.00
76257;BME280;65074;50.436;8.672;2024-02-16T10:12:48;99311.38;;;13.33;100.00
76257;BME280;65074;50.436;8.672;2024-02-16T10:15:20;99313.56;;;13.41;100.00
76257;BME280;65074;50.436;8.672;2024-02-16T10:18:03;99317.91;;;13.47;100.00
76257;BME280;65074;50.436;8.672;2024-02-16T10:20:30;99315.44;;;13.51;100.00
76257;BME280;65074;50.436;8.672;2024-02-16T10:23:05;99328.72;;;13.62;100.00
76257;BME280;65074;50.436;8.672;2024-02-16T10:25:31;99333.03;;;13.74;100.00
76257;BME280;65074;50.436;8.672;2024-02-16T10:27:57;99338.97;;;13.76;100.00
76257;BME280;65074;50.436;8.672;2024-02-16T10:30:27;99340.06;;;13.75;100.00
76257;BME280;65074;50.436;8.672;2024-02-16T10:32:54;99341.97;;;13.74;100.00
76257;BME280;65074;50.436;8.672;2024-02-16T10:35:20;99332.78;;;13.70;100.00
76257;BME280;65074;50.436;8.672;2024-02-16T10:37:47;99333.84;;;13.74;100.00
76257;BME280;65074;50.436;8.672;2024-02-16T10:40:13;99337.63;;;13.73;100.00
76257;BME280;65074;50.436;8.672;2024-02-16T10:42:45;99345.19;;;13.81;100.00
76257;BME280;65074;50.436;8.672;2024-02-16T10:45:12;99344.66;;;13.84;100.00
76257;BME280;65074;50.436;8.672;2024-02-16T10:47:38;99346.03;;;13.92;99.84
76257;BME280;65074;50.436;8.672;2024-02-16T10:50:04;99356.56;;;13.93;99.17
76257;BME280;65074;50.436;8.672;2024-02-16T10:52:31;99360.06;;;14.09;97.38
76257;BME280;65074;50.436;8.672;2024-02-16T10:54:57;99351.44;;;14.02;98.10
76257;BME280;65074;50.436;8.672;2024-02-16T10:57:24;99347.06;;;14.11;98.44
76257;BME280;65074;50.436;8.672;2024-02-16T10:59:52;99352.78;;;14.09;99.13
76257;BME280;65074;50.436;8.672;2024-02-16T11:02:19;99351.94;;;14.09;98.55
76257;BME280;65074;50.436;8.672;2024-02-16T11:04:46;99345.72;;;14.13;99.46
76257;BME280;65074;50.436;8.672;2024-02-16T11:07:15;99339.78;;;14.16;99.73
76257;BME280;65074;50.436;8.672;2024-02-16T11:09:40;99341.13;;;14.19;98.55
76257;BME280;65074;50.436;8.672;2024-02-16T11:12:07;99336.47;;;14.29;97.67
76257;BME280;65074;50.436;8.672;2024-02-16T11:14:38;99337.59;;;14.33;98.01
76257;BME280;65074;50.436;8.672;2024-02-16T11:17:12;99337.31;;;14.35;96.32
76257;BME280;65074;50.436;8.672;2024-02-16T11:19:40;99340.56;;;14.32;96.24
76257;BME280;65074;50.436;8.672;2024-02-16T11:22:06;99342.72;;;14.35;95.59
76257;BME280;65074;50.436;8.672;2024-02-16T11:24:42;99340.00;;;14.40;96.09
76257;BME280;65074;50.436;8.672;2024-02-16T11:27:10;99343.25;;;14.42;95.12
76257;BME280;65074;50.436;8.672;2024-02-16T11:29:36;99338.94;;;14.41;96.17
76257;BME280;65074;50.436;8.672;2024-02-16T11:32:05;99334.31;;;14.47;96.39
76257;BME280;65074;50.436;8.672;2024-02-16T11:34:32;99329.44;;;14.49;95.87
76257;BME280;65074;50.436;8.672;2024-02-16T11:36:59;99334.56;;;14.55;96.77
76257;BME280;65074;50.436;8.672;2024-02-16T11:39:26;99332.38;;;14.57;97.33
76257;BME280;65074;50.436;8.672;2024-02-16T11:42:05;99334.25;;;14.57;95.95
76257;BME280;65074;50.436;8.672;2024-02-16T11:44:32;99334.25;;;14.57;95.25
76257;BME280;65074;50.436;8.672;2024-02-16T11:46:59;99333.44;;;14.66;93.72
76257;BME280;65074;50.436;8.672;2024-02-16T11:49:24;99340.75;;;14.66;94.12
76257;BME280;65074;50.436;8.672;2024-02-16T11:51:50;99343.19;;;14.67;92.12
76257;BME280;65074;50.436;8.672;2024-02-16T11:54:16;99343.19;;;14.67;93.80
76257;BME280;65074;50.436;8.672;2024-02-16T11:56:45;99332.63;;;14.71;93.90
76257;BME280;65074;50.436;8.672;2024-02-16T11:59:14;99336.66;;;14.78;93.68
76257;BME280;65074;50.436;8.672;2024-02-16T12:01:54;99329.59;;;14.77;94.12
76257;BME280;65074;50.436;8.672;2024-02-16T12:04:24;99338.81;;;14.76;93.63
76257;BME280;65074;50.436;8.672;2024-02-16T12:06:57;99340.69;;;14.81;93.67
76257;BME280;65074;50.436;8.672;2024-02-16T12:09:23;99341.75;;;14.85;93.35
76257;BME280;65074;50.436;8.672;2024-02-16T12:11:50;99344.97;;;14.92;92.39
76257;BME280;65074;50.436;8.672;2024-02-16T12:14:17;99341.19;;;14.93;91.41
76257;BME280;65074;50.436;8.672;2024-02-16T12:16:46;99344.13;;;14.96;90.88
76257;BME280;65074;50.436;8.672;2024-02-16T12:19:13;99334.09;;;14.97;90.75
76257;BME280;65074;50.436;8.672;2024-02-16T12:21:38;99332.72;;;15.05;90.48
76257;BME280;65074;50.436;8.672;2024-02-16T12:24:04;99335.94;;;15.07;90.68
76257;BME280;65074;50.436;8.672;2024-02-16T12:26:29;99347.28;;;15.14;88.92
76257;BME280;65074;50.436;8.672;2024-02-16T12:28:55;99341.34;;;15.12;88.81
76257;BME280;65074;50.436;8.672;2024-02-16T12:31:20;99345.16;;;15.11;90.09
76257;BME280;65074;50.436;8.672;2024-02-16T12:33:47;99347.59;;;15.12;89.15
76257;BME280;65074;50.436;8.672;2024-02-16T12:36:12;99353.56;;;15.09;90.57
76257;BME280;65074;50.436;8.672;2024-02-16T12:38:37;99344.06;;;15.12;89.64
76257;BME280;65074;50.436;8.672;2024-02-16T12:41:03;99350.00;;;15.14;89.50
76257;BME280;65074;50.436;8.672;2024-02-16T12:43:28;99353.28;;;15.16;89.49
76257;BME280;65074;50.436;8.672;2024-02-16T12:45:54;99342.66;;;15.19;89.14
76257;BME280;65074;50.436;8.672;2024-02-16T12:48:20;99345.91;;;15.16;89.96
76257;BME280;65074;50.436;8.672;2024-02-16T12:50:45;99351.09;;;15.18;90.79
76257;BME280;65074;50.436;8.672;2024-02-16T12:53:12;99346.97;;;15.25;90.33